sensor_id;sensor_type;location;lat;lon;timestamp;temperature;humidity
17146;DHT22;8688;54.444;18.444;2023-03-01T00:01:04;0.60;1.00
17146;DHT22;8688;54.444;18.444;2023-03-01T00:03:32;0.60;1.00
17146;DHT22;8688;54.444;18.444;2023-03-01T00:06:00;0.50;1.00
17146;DHT22;8688;54.444;18.444;2023-03-01T00:08:28;0.50;1.00
17146;DHT22;8688;54.444;18.444;2023-03-01T00:11:01;0.50;1.00
17146;DHT22;8688;54.444;18.444;2023-03-01T00:13:29;0.50;1.00
17146;DHT22;8688;54.444;18.444;2023-03-01T00:15:56;0.50;1.00
17146;DHT22;8688;54.444;18.444;2023-03-01T00:18:25;0.50;1.00
17146;DHT22;8688;54.444;18.444;2023-03-01T00:20:54;0.50;1.00
17146;DHT22;8688;54.444;18.444;2023-03-01T00:23:22;0.50;1.00
17146;DHT22;8688;54.444;18.444;2023-03-01T00:25:50;0.50;1.00
17146;DHT22;8688;54.444;18.444;2023-03-01T00:28:18;0.50;1.00
17146;DHT22;8688;54.444;18.444;2023-03-01T00:30:47;0.50;1.00
17146;DHT22;8688;54.444;18.444;2023-03-01T00:33:14;0.50;1.00
17146;DHT22;8688;54.444;18.444;2023-03-01T00:35:43;0.40;1.00
17146;DHT22;8688;54.444;18.444;2023-03-01T00:38:11;0.40;1.00
17146;DHT22;8688;54.444;18.444;2023-03-01T00:40:39;0.40;1.00
17146;DHT22;8688;54.444;18.444;2023-03-01T00:43:06;0.40;1.00
17146;DHT22;8688;54.444;18.444;2023-03-01T00:45:34;0.40;1.00
17146;DHT22;8688;54.444;18.444;2023-03-01T00:48:02;0.40;1.00
17146;DHT22;8688;54.444;18.444;2023-03-01T00:50:29;0.40;1.00
17146;DHT22;8688;54.444;18.444;2023-03-01T00:52:58;0.40;1.00
17146;DHT22;8688;54.444;18.444;2023-03-01T00:55:26;0.40;1.00
17146;DHT22;8688;54.444;18.444;2023-03-01T00:57:54;0.40;1.00
17146;DHT22;8688;54.444;18.444;2023-03-01T01:00:21;0.40;1.00
17146;DHT22;8688;54.444;18.444;2023-03-01T01:02:49;0.40;1.00
17146;DHT22;8688;54.444;18.444;2023-03-01T01:05:17;0.40;1.00
17146;DHT22;8688;54.444;18.444;2023-03-01T01:07:47;0.40;1.00
17146;DHT22;8688;54.444;18.444;2023-03-01T01:10:16;0.40;1.00
17146;DHT22;8688;54.444;18.444;2023-03-01T01:12:44;0.40;1.00
17146;DHT22;8688;54.444;18.444;2023-03-01T01:15:13;0.40;1.00
17146;DHT22;8688;54.444;18.444;2023-03-01T01:17:42;0.40;1.00
17146;DHT22;8688;54.444;18.444;2023-03-01T01:20:11;0.40;1.00
17146;DHT22;8688;54.444;18.444;2023-03-01T01:22:38;0.40;1.00
17146;DHT22;8688;54.444;18.444;2023-03-01T01:25:06;0.40;1.00
17146;DHT22;8688;54.444;18.444;2023-03-01T01:27:36;0.30;1.00
17146;DHT22;8688;54.444;18.444;2023-03-01T01:30:04;0.30;1.00
17146;DHT22;8688;54.444;18.444;2023-03-01T01:32:32;0.40;1.00
17146;DHT22;8688;54.444;18.444;2023-03-01T01:34:59;0.30;1.00
17146;DHT22;8688;54.444;18.444;2023-03-01T01:37:27;0.40;1.00
17146;DHT22;8688;54.444;18.444;2023-03-01T01:39:57;0.40;1.00
17146;DHT22;8688;54.444;18.444;2023-03-01T01:42:26;0.40;1.00
17146;DHT22;8688;54.444;18.444;2023-03-01T01:45:28;0.40;1.00
17146;DHT22;8688;54.444;18.444;2023-03-01T01:47:57;0.40;1.00
17146;DHT22;8688;54.444;18.444;2023-03-01T01:50:26;0.40;1.00
17146;DHT22;8688;54.444;18.444;2023-03-01T01:52:59;0.40;1.00
17146;DHT22;8688;54.444;18.444;2023-03-01T01:55:27;0.40;1.00
17146;DHT22;8688;54.444;18.444;2023-03-01T01:57:57;0.40;1.00
17146;DHT22;8688;54.444;18.444;2023-03-01T02:00:28;0.40;12.70
17146;DHT22;8688;54.444;18.444;2023-03-01T02:02:58;0.40;29.60
17146;DHT22;8688;54.444;18.444;2023-03-01T02:05:33;0.50;46.70
17146;DHT22;8688;54.444;18.444;2023-03-01T02:08:02;0.50;67.30
17146;DHT22;8688;54.444;18.444;2023-03-01T02:10:32;0.50;91.70
17146;DHT22;8688;54.444;18.444;2023-03-01T02:13:01;0.60;99.90
17146;DHT22;8688;54.444;18.444;2023-03-01T02:15:32;0.60;99.90
17146;DHT22;8688;54.444;18.444;2023-03-01T02:18:01;0.60;99.90
17146;DHT22;8688;54.444;18.444;2023-03-01T02:20:35;0.70;99.90
17146;DHT22;8688;54.444;18.444;2023-03-01T02:23:04;0.70;99.90
17146;DHT22;8688;54.444;18.444;2023-03-01T02:25:38;0.70;99.90
17146;DHT22;8688;54.444;18.444;2023-03-01T02:28:17;0.70;99.90
17146;DHT22;8688;54.444;18.444;2023-03-01T02:30:46;0.70;99.90
17146;DHT22;8688;54.444;18.444;2023-03-01T02:33:28;0.70;99.90
17146;DHT22;8688;54.444;18.444;2023-03-01T02:35:59;0.70;99.90
17146;DHT22;8688;54.444;18.444;2023-03-01T02:38:28;0.70;99.90
17146;DHT22;8688;54.444;18.444;2023-03-01T02:40:56;0.70;99.90
17146;DHT22;8688;54.444;18.444;2023-03-01T02:43:29;0.70;99.90
17146;DHT22;8688;54.444;18.444;2023-03-01T02:45:59;0.70;99.90
17146;DHT22;8688;54.444;18.444;2023-03-01T02:48:26;0.70;99.90
17146;DHT22;8688;54.444;18.444;2023-03-01T02:51:04;0.70;99.90
17146;DHT22;8688;54.444;18.444;2023-03-01T02:53:39;0.70;99.90
17146;DHT22;8688;54.444;18.444;2023-03-01T02:56:08;0.70;99.90
17146;DHT22;8688;54.444;18.444;2023-03-01T02:58:40;0.70;99.90
17146;DHT22;8688;54.444;18.444;2023-03-01T03:01:11;0.70;99.90
17146;DHT22;8688;54.444;18.444;2023-03-01T03:03:40;0.70;99.90
17146;DHT22;8688;54.444;18.444;2023-03-01T03:06:08;0.70;99.90
17146;DHT22;8688;54.444;18.444;2023-03-01T03:08:36;0.70;99.90
17146;DHT22;8688;54.444;18.444;2023-03-01T03:11:03;0.70;99.90
17146;DHT22;8688;54.444;18.444;2023-03-01T03:13:31;0.70;99.90
17146;DHT22;8688;54.444;18.444;2023-03-01T03:16:00;0.80;99.90
17146;DHT22;8688;54.444;18.444;2023-03-01T03:18:29;0.80;99.90
17146;DHT22;8688;54.444;18.444;2023-03-01T03:20:57;0.80;99.90
17146;DHT22;8688;54.444;18.444;2023-03-01T03:23:24;0.80;99.90
17146;DHT22;8688;54.444;18.444;2023-03-01T03:25:52;0.80;99.90
17146;DHT22;8688;54.444;18.444;2023-03-01T03:28:19;0.80;99.90
17146;DHT22;8688;54.444;18.444;2023-03-01T03:30:46;0.80;99.90
17146;DHT22;8688;54.444;18.444;2023-03-01T03:33:16;0.80;99.90
17146;DHT22;8688;54.444;18.444;2023-03-01T03:35:45;0.80;99.90
17146;DHT22;8688;54.444;18.444;2023-03-01T03:38:13;0.80;99.90
17146;DHT22;8688;54.444;18.444;2023-03-01T03:40:46;0.80;99.90
17146;DHT22;8688;54.444;18.444;2023-03-01T03:43:15;0.80;99.90
17146;DHT22;8688;54.444;18.444;2023-03-01T03:45:44;0.80;99.90
17146;DHT22;8688;54.444;18.444;2023-03-01T03:48:12;0.80;99.90
17146;DHT22;8688;54.444;18.444;2023-03-01T03:50:41;0.90;99.90
17146;DHT22;8688;54.444;18.444;2023-03-01T03:53:13;0.80;99.90
17146;DHT22;8688;54.444;18.444;2023-03-01T03:55:41;0.90;99.90
17146;DHT22;8688;54.444;18.444;2023-03-01T03:58:11;0.90;99.90
17146;DHT22;8688;54.444;18.444;2023-03-01T04:00:39;0.80;99.90
17146;DHT22;8688;54.444;18.444;2023-03-01T04:03:08;0.90;99.90
17146;DHT22;8688;54.444;18.444;2023-03-01T04:05:36;0.90;99.90
17146;DHT22;8688;54.444;18.444;2023-03-01T04:08:06;0.80;99.90
17146;DHT22;8688;54.444;18.444;2023-03-01T04:10:35;0.80;99.90
17146;DHT22;8688;54.444;18.444;2023-03-01T04:13:03;0.80;99.90
17146;DHT22;8688;54.444;18.444;2023-03-01T04:15:31;0.80;99.90
17146;DHT22;8688;54.444;18.444;2023-03-01T04:17:59;0.80;99.90
17146;DHT22;8688;54.444;18.444;2023-03-01T04:20:29;0.80;99.90
17146;DHT22;8688;54.444;18.444;2023-03-01T04:22:59;0.90;99.90
17146;DHT22;8688;54.444;18.444;2023-03-01T04:25:36;0.80;99.90
17146;DHT22;8688;54.444;18.444;2023-03-01T04:28:04;0.90;99.90
17146;DHT22;8688;54.444;18.444;2023-03-01T04:30:32;0.90;99.90
17146;DHT22;8688;54.444;18.444;2023-03-01T04:33:03;0.90;99.90
17146;DHT22;8688;54.444;18.444;2023-03-01T04:35:31;0.90;99.90
17146;DHT22;8688;54.444;18.444;2023-03-01T04:37:58;0.90;99.90
17146;DHT22;8688;54.444;18.444;2023-03-01T04:40:26;0.90;99.90
17146;DHT22;8688;54.444;18.444;2023-03-01T04:42:55;0.90;99.90
17146;DHT22;8688;54.444;18.444;2023-03-01T04:45:23;0.90;99.90
17146;DHT22;8688;54.444;18.444;2023-03-01T04:47:51;0.90;99.90
17146;DHT22;8688;54.444;18.444;2023-03-01T04:50:19;0.90;99.90
17146;DHT22;8688;54.444;18.444;2023-03-01T04:52:49;0.90;99.90
17146;DHT22;8688;54.444;18.444;2023-03-01T04:55:16;0.90;99.90
17146;DHT22;8688;54.444;18.444;2023-03-01T04:57:44;0.90;99.90
17146;DHT22;8688;54.444;18.444;2023-03-01T05:00:16;0.90;99.90
17146;DHT22;8688;54.444;18.444;2023-03-01T05:02:50;0.90;99.90
17146;DHT22;8688;54.444;18.444;2023-03-01T05:05:22;0.90;99.90
17146;DHT22;8688;54.444;18.444;2023-03-01T05:07:52;0.90;99.90
17146;DHT22;8688;54.444;18.444;2023-03-01T05:10:20;0.90;99.90
17146;DHT22;8688;54.444;18.444;2023-03-01T05:12:47;0.80;99.90
17146;DHT22;8688;54.444;18.444;2023-03-01T05:15:16;0.80;99.90
17146;DHT22;8688;54.444;18.444;2023-03-01T05:17:44;0.90;99.90
17146;DHT22;8688;54.444;18.444;2023-03-01T05:20:12;0.80;99.90
17146;DHT22;8688;54.444;18.444;2023-03-01T05:22:39;0.80;99.90
17146;DHT22;8688;54.444;18.444;2023-03-01T05:25:07;0.80;99.90
17146;DHT22;8688;54.444;18.444;2023-03-01T05:27:35;0.80;99.90
17146;DHT22;8688;54.444;18.444;2023-03-01T05:30:04;0.80;99.90
17146;DHT22;8688;54.444;18.444;2023-03-01T05:32:41;0.80;99.90
17146;DHT22;8688;54.444;18.444;2023-03-01T05:35:11;0.80;99.90
17146;DHT22;8688;54.444;18.444;2023-03-01T05:37:41;0.80;99.90
17146;DHT22;8688;54.444;18.444;2023-03-01T05:40:11;0.80;99.90
17146;DHT22;8688;54.444;18.444;2023-03-01T05:42:47;0.80;99.90
17146;DHT22;8688;54.444;18.444;2023-03-01T05:45:15;0.80;99.90
17146;DHT22;8688;54.444;18.444;2023-03-01T05:47:46;0.80;99.90
17146;DHT22;8688;54.444;18.444;2023-03-01T05:50:15;0.80;99.90
17146;DHT22;8688;54.444;18.444;2023-03-01T05:52:46;0.80;99.90
17146;DHT22;8688;54.444;18.444;2023-03-01T05:55:14;0.80;99.90
17146;DHT22;8688;54.444;18.444;2023-03-01T05:57:42;0.80;99.90
17146;DHT22;8688;54.444;18.444;2023-03-01T06:00:11;0.80;99.90
17146;DHT22;8688;54.444;18.444;2023-03-01T06:02:38;0.80;99.90
17146;DHT22;8688;54.444;18.444;2023-03-01T06:05:10;0.80;99.90
17146;DHT22;8688;54.444;18.444;2023-03-01T06:07:38;0.80;99.90
17146;DHT22;8688;54.444;18.444;2023-03-01T06:10:07;0.80;99.90
17146;DHT22;8688;54.444;18.444;2023-03-01T06:12:37;0.70;99.90
17146;DHT22;8688;54.444;18.444;2023-03-01T06:15:06;0.80;99.90
17146;DHT22;8688;54.444;18.444;2023-03-01T06:17:38;0.70;99.90
17146;DHT22;8688;54.444;18.444;2023-03-01T06:20:10;0.70;99.90
17146;DHT22;8688;54.444;18.444;2023-03-01T06:22:38;0.70;99.90
17146;DHT22;8688;54.444;18.444;2023-03-01T06:25:06;0.80;99.90
17146;DHT22;8688;54.444;18.444;2023-03-01T06:27:33;0.80;99.90
17146;DHT22;8688;54.444;18.444;2023-03-01T06:30:01;0.80;99.90
17146;DHT22;8688;54.444;18.444;2023-03-01T06:32:29;0.80;99.90
17146;DHT22;8688;54.444;18.444;2023-03-01T06:34:58;0.80;99.90
17146;DHT22;8688;54.444;18.444;2023-03-01T06:37:28;0.80;99.90
17146;DHT22;8688;54.444;18.444;2023-03-01T06:39:55;0.80;99.90
17146;DHT22;8688;54.444;18.444;2023-03-01T06:42:23;0.90;99.90
17146;DHT22;8688;54.444;18.444;2023-03-01T06:44:50;0.90;99.90
17146;DHT22;8688;54.444;18.444;2023-03-01T06:47:18;0.90;99.90
17146;DHT22;8688;54.444;18.444;2023-03-01T06:49:45;0.90;99.90
17146;DHT22;8688;54.444;18.444;2023-03-01T06:52:12;0.90;99.90
17146;DHT22;8688;54.444;18.444;2023-03-01T06:54:41;0.90;99.90
17146;DHT22;8688;54.444;18.444;2023-03-01T06:57:09;0.90;99.90
17146;DHT22;8688;54.444;18.444;2023-03-01T06:59:36;0.90;99.90
17146;DHT22;8688;54.444;18.444;2023-03-01T07:02:04;1.00;99.90
17146;DHT22;8688;54.444;18.444;2023-03-01T07:04:31;1.00;99.90
17146;DHT22;8688;54.444;18.444;2023-03-01T07:06:58;1.00;99.90
17146;DHT22;8688;54.444;18.444;2023-03-01T07:09:26;1.00;99.90
17146;DHT22;8688;54.444;18.444;2023-03-01T07:11:56;1.10;99.90
17146;DHT22;8688;54.444;18.444;2023-03-01T07:14:23;1.10;99.90
17146;DHT22;8688;54.444;18.444;2023-03-01T07:16:51;1.10;99.90
17146;DHT22;8688;54.444;18.444;2023-03-01T07:19:19;1.20;99.90
17146;DHT22;8688;54.444;18.444;2023-03-01T07:21:47;1.20;99.90
17146;DHT22;8688;54.444;18.444;2023-03-01T07:24:15;1.20;99.90
17146;DHT22;8688;54.444;18.444;2023-03-01T07:26:42;1.20;99.90
17146;DHT22;8688;54.444;18.444;2023-03-01T07:29:11;1.30;99.90
17146;DHT22;8688;54.444;18.444;2023-03-01T07:31:38;1.30;99.90
17146;DHT22;8688;54.444;18.444;2023-03-01T07:34:06;1.30;99.90
17146;DHT22;8688;54.444;18.444;2023-03-01T07:36:33;1.30;99.90
17146;DHT22;8688;54.444;18.444;2023-03-01T07:39:01;1.40;99.90
17146;DHT22;8688;54.444;18.444;2023-03-01T07:41:29;1.30;99.90
17146;DHT22;8688;54.444;18.444;2023-03-01T07:43:56;1.40;99.90
17146;DHT22;8688;54.444;18.444;2023-03-01T07:46:25;1.40;99.90
17146;DHT22;8688;54.444;18.444;2023-03-01T07:48:53;1.40;99.90
17146;DHT22;8688;54.444;18.444;2023-03-01T07:51:20;1.40;99.90
17146;DHT22;8688;54.444;18.444;2023-03-01T07:53:48;1.40;99.90
17146;DHT22;8688;54.444;18.444;2023-03-01T07:56:18;1.50;99.90
17146;DHT22;8688;54.444;18.444;2023-03-01T07:58:47;1.50;99.90
17146;DHT22;8688;54.444;18.444;2023-03-01T08:01:16;1.60;99.90
17146;DHT22;8688;54.444;18.444;2023-03-01T08:03:45;1.60;99.90
17146;DHT22;8688;54.444;18.444;2023-03-01T08:06:16;1.60;99.90
17146;DHT22;8688;54.444;18.444;2023-03-01T08:08:44;1.70;99.90
17146;DHT22;8688;54.444;18.444;2023-03-01T08:11:13;1.70;99.90
17146;DHT22;8688;54.444;18.444;2023-03-01T08:13:41;1.70;99.90
17146;DHT22;8688;54.444;18.444;2023-03-01T08:16:11;1.80;99.90
17146;DHT22;8688;54.444;18.444;2023-03-01T08:18:39;1.80;99.90
17146;DHT22;8688;54.444;18.444;2023-03-01T08:21:10;1.80;99.90
17146;DHT22;8688;54.444;18.444;2023-03-01T08:23:38;1.80;99.90
17146;DHT22;8688;54.444;18.444;2023-03-01T08:26:08;1.80;99.90
17146;DHT22;8688;54.444;18.444;2023-03-01T08:28:36;1.70;99.90
17146;DHT22;8688;54.444;18.444;2023-03-01T08:31:12;1.90;99.90
17146;DHT22;8688;54.444;18.444;2023-03-01T08:33:40;1.90;99.90
17146;DHT22;8688;54.444;18.444;2023-03-01T08:36:09;2.00;99.90
17146;DHT22;8688;54.444;18.444;2023-03-01T08:38:37;2.10;99.90
17146;DHT22;8688;54.444;18.444;2023-03-01T08:41:04;2.10;99.90
17146;DHT22;8688;54.444;18.444;2023-03-01T08:43:32;2.20;99.90
17146;DHT22;8688;54.444;18.444;2023-03-01T08:45:59;2.20;99.90
17146;DHT22;8688;54.444;18.444;2023-03-01T08:48:28;2.10;97.50
17146;DHT22;8688;54.444;18.444;2023-03-01T08:50:56;2.20;93.10
17146;DHT22;8688;54.444;18.444;2023-03-01T08:53:25;2.20;77.90
17146;DHT22;8688;54.444;18.444;2023-03-01T08:55:53;2.20;45.20
17146;DHT22;8688;54.444;18.444;2023-03-01T08:58:20;2.20;30.40
17146;DHT22;8688;54.444;18.444;2023-03-01T09:00:48;2.30;19.30
17146;DHT22;8688;54.444;18.444;2023-03-01T09:03:16;2.30;9.30
17146;DHT22;8688;54.444;18.444;2023-03-01T09:05:43;2.40;1.00
17146;DHT22;8688;54.444;18.444;2023-03-01T09:08:11;2.50;1.00
17146;DHT22;8688;54.444;18.444;2023-03-01T09:10:40;2.60;1.00
17146;DHT22;8688;54.444;18.444;2023-03-01T09:13:08;2.70;1.00
17146;DHT22;8688;54.444;18.444;2023-03-01T09:15:37;2.70;1.00
17146;DHT22;8688;54.444;18.444;2023-03-01T09:18:04;2.70;1.00
17146;DHT22;8688;54.444;18.444;2023-03-01T09:20:32;2.70;1.00
17146;DHT22;8688;54.444;18.444;2023-03-01T09:23:00;2.70;1.00
17146;DHT22;8688;54.444;18.444;2023-03-01T09:25:27;2.70;1.00
17146;DHT22;8688;54.444;18.444;2023-03-01T09:27:56;2.80;1.00
17146;DHT22;8688;54.444;18.444;2023-03-01T09:30:24;2.80;1.00
17146;DHT22;8688;54.444;18.444;2023-03-01T09:32:51;2.90;1.00
17146;DHT22;8688;54.444;18.444;2023-03-01T09:35:19;2.90;1.00
17146;DHT22;8688;54.444;18.444;2023-03-01T09:37:48;3.00;1.00
17146;DHT22;8688;54.444;18.444;2023-03-01T09:40:18;3.00;1.00
17146;DHT22;8688;54.444;18.444;2023-03-01T09:42:54;3.10;1.00
17146;DHT22;8688;54.444;18.444;2023-03-01T09:45:32;3.20;1.00
17146;DHT22;8688;54.444;18.444;2023-03-01T09:48:03;3.10;1.00
17146;DHT22;8688;54.444;18.444;2023-03-01T09:50:34;3.10;1.00
17146;DHT22;8688;54.444;18.444;2023-03-01T09:53:05;3.10;1.00
17146;DHT22;8688;54.444;18.444;2023-03-01T09:55:38;3.10;1.00
17146;DHT22;8688;54.444;18.444;2023-03-01T09:58:38;3.00;1.00
17146;DHT22;8688;54.444;18.444;2023-03-01T10:01:26;3.00;1.00
17146;DHT22;8688;54.444;18.444;2023-03-01T10:04:21;3.10;1.00
17146;DHT22;8688;54.444;18.444;2023-03-01T10:07:04;3.20;1.00
17146;DHT22;8688;54.444;18.444;2023-03-01T10:09:34;3.10;1.00
17146;DHT22;8688;54.444;18.444;2023-03-01T10:12:07;3.10;1.00
17146;DHT22;8688;54.444;18.444;2023-03-01T10:14:39;3.10;1.00
17146;DHT22;8688;54.444;18.444;2023-03-01T10:17:20;3.30;1.00
17146;DHT22;8688;54.444;18.444;2023-03-01T10:19:51;3.40;1.00
17146;DHT22;8688;54.444;18.444;2023-03-01T10:22:20;3.40;1.00
17146;DHT22;8688;54.444;18.444;2023-03-01T10:24:48;3.40;1.00
17146;DHT22;8688;54.444;18.444;2023-03-01T10:27:20;3.40;1.00
17146;DHT22;8688;54.444;18.444;2023-03-01T10:29:55;3.40;1.00
17146;DHT22;8688;54.444;18.444;2023-03-01T10:32:26;3.40;1.00
17146;DHT22;8688;54.444;18.444;2023-03-01T10:34:53;3.40;1.00
17146;DHT22;8688;54.444;18.444;2023-03-01T10:37:23;3.30;1.00
17146;DHT22;8688;54.444;18.444;2023-03-01T10:39:58;3.30;1.00
17146;DHT22;8688;54.444;18.444;2023-03-01T10:42:28;3.40;1.00
17146;DHT22;8688;54.444;18.444;2023-03-01T10:44:56;3.30;1.00
17146;DHT22;8688;54.444;18.444;2023-03-01T10:47:27;3.30;1.00
17146;DHT22;8688;54.444;18.444;2023-03-01T10:49:59;3.60;1.00
17146;DHT22;8688;54.444;18.444;2023-03-01T10:52:30;3.70;1.00
17146;DHT22;8688;54.444;18.444;2023-03-01T10:55:00;3.70;1.00
17146;DHT22;8688;54.444;18.444;2023-03-01T10:57:32;3.70;1.00
17146;DHT22;8688;54.444;18.444;2023-03-01T11:03:05;3.50;1.00
17146;DHT22;8688;54.444;18.444;2023-03-01T11:05:37;3.60;1.00
17146;DHT22;8688;54.444;18.444;2023-03-01T11:08:30;3.70;1.00
17146;DHT22;8688;54.444;18.444;2023-03-01T11:11:06;3.80;1.00
17146;DHT22;8688;54.444;18.444;2023-03-01T11:13:34;3.80;1.00
17146;DHT22;8688;54.444;18.444;2023-03-01T11:16:03;3.90;1.00
17146;DHT22;8688;54.444;18.444;2023-03-01T11:18:34;3.90;1.00
17146;DHT22;8688;54.444;18.444;2023-03-01T11:21:02;3.80;99.90
17146;DHT22;8688;54.444;18.444;2023-03-01T11:23:31;3.80;1.00
17146;DHT22;8688;54.444;18.444;2023-03-01T11:26:01;3.90;1.00
17146;DHT22;8688;54.444;18.444;2023-03-01T11:28:30;3.90;1.00
17146;DHT22;8688;54.444;18.444;2023-03-01T11:31:00;3.70;1.00
17146;DHT22;8688;54.444;18.444;2023-03-01T11:33:37;3.80;1.00
17146;DHT22;8688;54.444;18.444;2023-03-01T11:36:15;3.90;1.00
17146;DHT22;8688;54.444;18.444;2023-03-01T11:38:43;3.80;1.00
17146;DHT22;8688;54.444;18.444;2023-03-01T11:41:15;3.70;1.00
17146;DHT22;8688;54.444;18.444;2023-03-01T11:43:49;3.80;1.00
17146;DHT22;8688;54.444;18.444;2023-03-01T11:46:45;3.80;1.00
17146;DHT22;8688;54.444;18.444;2023-03-01T11:49:40;3.90;1.00
17146;DHT22;8688;54.444;18.444;2023-03-01T11:52:16;3.90;1.00
17146;DHT22;8688;54.444;18.444;2023-03-01T11:54:57;3.90;1.00
17146;DHT22;8688;54.444;18.444;2023-03-01T11:57:43;4.00;1.00
17146;DHT22;8688;54.444;18.444;2023-03-01T12:00:25;4.00;1.00
17146;DHT22;8688;54.444;18.444;2023-03-01T12:03:28;4.00;1.00
17146;DHT22;8688;54.444;18.444;2023-03-01T12:06:23;3.90;99.90
17146;DHT22;8688;54.444;18.444;2023-03-01T12:11:57;3.90;1.00
17146;DHT22;8688;54.444;18.444;2023-03-01T12:14:48;3.90;1.00
17146;DHT22;8688;54.444;18.444;2023-03-01T12:20:28;4.00;1.00
17146;DHT22;8688;54.444;18.444;2023-03-01T12:23:26;4.10;99.90
17146;DHT22;8688;54.444;18.444;2023-03-01T12:26:01;4.20;99.90
17146;DHT22;8688;54.444;18.444;2023-03-01T12:28:49;4.30;99.90
17146;DHT22;8688;54.444;18.444;2023-03-01T12:34:40;4.30;99.90
17146;DHT22;8688;54.444;18.444;2023-03-01T12:37:25;4.40;99.90
17146;DHT22;8688;54.444;18.444;2023-03-01T12:40:23;4.50;99.90
17146;DHT22;8688;54.444;18.444;2023-03-01T12:43:02;4.60;99.90
17146;DHT22;8688;54.444;18.444;2023-03-01T12:45:45;4.60;99.90
17146;DHT22;8688;54.444;18.444;2023-03-01T12:48:24;4.60;99.90
17146;DHT22;8688;54.444;18.444;2023-03-01T12:50:55;4.70;99.90
17146;DHT22;8688;54.444;18.444;2023-03-01T12:53:26;4.70;99.90
17146;DHT22;8688;54.444;18.444;2023-03-01T12:55:59;4.70;99.90
17146;DHT22;8688;54.444;18.444;2023-03-01T12:58:31;4.80;99.90
17146;DHT22;8688;54.444;18.444;2023-03-01T13:01:15;4.90;1.00
17146;DHT22;8688;54.444;18.444;2023-03-01T13:04:11;4.90;1.00
17146;DHT22;8688;54.444;18.444;2023-03-01T13:06:44;5.00;99.90
17146;DHT22;8688;54.444;18.444;2023-03-01T13:09:21;5.00;1.00
17146;DHT22;8688;54.444;18.444;2023-03-01T13:11:52;5.00;99.90
17146;DHT22;8688;54.444;18.444;2023-03-01T13:14:46;5.10;99.90
17146;DHT22;8688;54.444;18.444;2023-03-01T13:17:39;5.20;99.90
17146;DHT22;8688;54.444;18.444;2023-03-01T13:20:13;5.40;1.00
17146;DHT22;8688;54.444;18.444;2023-03-01T13:22:41;5.40;99.90
17146;DHT22;8688;54.444;18.444;2023-03-01T13:25:15;5.50;1.00
17146;DHT22;8688;54.444;18.444;2023-03-01T13:27:45;5.30;1.00
17146;DHT22;8688;54.444;18.444;2023-03-01T13:33:44;5.40;99.90
17146;DHT22;8688;54.444;18.444;2023-03-01T13:39:27;5.60;99.90
17146;DHT22;8688;54.444;18.444;2023-03-01T13:41:58;5.60;1.00
17146;DHT22;8688;54.444;18.444;2023-03-01T13:44:31;5.70;1.00
17146;DHT22;8688;54.444;18.444;2023-03-01T13:47:07;5.60;1.00
17146;DHT22;8688;54.444;18.444;2023-03-01T13:49:43;5.70;1.00
17146;DHT22;8688;54.444;18.444;2023-03-01T13:52:34;5.80;1.00
17146;DHT22;8688;54.444;18.444;2023-03-01T13:55:03;5.70;99.90
17146;DHT22;8688;54.444;18.444;2023-03-01T13:57:34;5.70;99.90
17146;DHT22;8688;54.444;18.444;2023-03-01T14:00:26;5.80;99.90
17146;DHT22;8688;54.444;18.444;2023-03-01T14:03:01;5.90;99.90
17146;DHT22;8688;54.444;18.444;2023-03-01T14:05:29;5.90;99.90
17146;DHT22;8688;54.444;18.444;2023-03-01T14:07:57;6.00;1.00
17146;DHT22;8688;54.444;18.444;2023-03-01T14:10:31;6.10;1.00
17146;DHT22;8688;54.444;18.444;2023-03-01T14:13:13;6.00;1.00
17146;DHT22;8688;54.444;18.444;2023-03-01T14:15:50;6.00;1.00
17146;DHT22;8688;54.444;18.444;2023-03-01T14:18:25;6.00;1.00
17146;DHT22;8688;54.444;18.444;2023-03-01T14:20:57;6.10;1.00
17146;DHT22;8688;54.444;18.444;2023-03-01T14:23:26;6.10;1.00
17146;DHT22;8688;54.444;18.444;2023-03-01T14:25:57;6.10;1.00
17146;DHT22;8688;54.444;18.444;2023-03-01T14:28:26;6.00;1.00
17146;DHT22;8688;54.444;18.444;2023-03-01T14:30:58;6.00;1.00
17146;DHT22;8688;54.444;18.444;2023-03-01T14:33:27;5.80;1.00
17146;DHT22;8688;54.444;18.444;2023-03-01T14:35:57;5.80;1.00
17146;DHT22;8688;54.444;18.444;2023-03-01T14:38:31;5.70;1.00
17146;DHT22;8688;54.444;18.444;2023-03-01T14:41:03;5.80;1.00
17146;DHT22;8688;54.444;18.444;2023-03-01T14:43:31;5.80;1.00
17146;DHT22;8688;54.444;18.444;2023-03-01T14:46:01;5.70;1.00
17146;DHT22;8688;54.444;18.444;2023-03-01T14:48:29;5.60;1.00
17146;DHT22;8688;54.444;18.444;2023-03-01T14:50:57;5.60;1.00
17146;DHT22;8688;54.444;18.444;2023-03-01T14:53:28;5.50;1.00
17146;DHT22;8688;54.444;18.444;2023-03-01T14:55:59;5.40;1.00
17146;DHT22;8688;54.444;18.444;2023-03-01T14:58:28;5.40;1.00
17146;DHT22;8688;54.444;18.444;2023-03-01T15:00:58;5.20;99.90
17146;DHT22;8688;54.444;18.444;2023-03-01T15:03:31;5.20;99.90
17146;DHT22;8688;54.444;18.444;2023-03-01T15:06:01;5.10;1.00
17146;DHT22;8688;54.444;18.444;2023-03-01T15:08:30;5.00;1.00
17146;DHT22;8688;54.444;18.444;2023-03-01T15:11:02;5.00;93.60
17146;DHT22;8688;54.444;18.444;2023-03-01T15:13:32;5.00;99.90
17146;DHT22;8688;54.444;18.444;2023-03-01T15:16:18;5.00;99.90
17146;DHT22;8688;54.444;18.444;2023-03-01T15:18:49;5.00;1.00
17146;DHT22;8688;54.444;18.444;2023-03-01T15:21:21;4.90;1.00
17146;DHT22;8688;54.444;18.444;2023-03-01T15:23:52;4.90;1.00
17146;DHT22;8688;54.444;18.444;2023-03-01T15:26:29;4.80;1.00
17146;DHT22;8688;54.444;18.444;2023-03-01T15:28:59;4.80;99.90
17146;DHT22;8688;54.444;18.444;2023-03-01T15:31:28;4.70;99.90
17146;DHT22;8688;54.444;18.444;2023-03-01T15:34:21;4.70;1.00
17146;DHT22;8688;54.444;18.444;2023-03-01T15:36:50;4.60;99.90
17146;DHT22;8688;54.444;18.444;2023-03-01T15:39:39;4.50;99.90
17146;DHT22;8688;54.444;18.444;2023-03-01T15:42:11;4.50;1.00
17146;DHT22;8688;54.444;18.444;2023-03-01T15:44:40;4.40;1.00
17146;DHT22;8688;54.444;18.444;2023-03-01T15:47:26;4.40;1.00
17146;DHT22;8688;54.444;18.444;2023-03-01T15:49:56;4.40;1.00
17146;DHT22;8688;54.444;18.444;2023-03-01T15:52:27;4.40;1.00
17146;DHT22;8688;54.444;18.444;2023-03-01T15:54:57;4.40;99.90
17146;DHT22;8688;54.444;18.444;2023-03-01T15:57:25;4.40;1.00
17146;DHT22;8688;54.444;18.444;2023-03-01T15:59:52;4.40;1.00
17146;DHT22;8688;54.444;18.444;2023-03-01T16:02:20;4.30;1.00
17146;DHT22;8688;54.444;18.444;2023-03-01T16:04:48;4.20;99.90
17146;DHT22;8688;54.444;18.444;2023-03-01T16:07:17;4.20;1.00
17146;DHT22;8688;54.444;18.444;2023-03-01T16:09:45;4.10;1.00
17146;DHT22;8688;54.444;18.444;2023-03-01T16:12:14;4.10;1.00
17146;DHT22;8688;54.444;18.444;2023-03-01T16:14:42;3.90;1.00
17146;DHT22;8688;54.444;18.444;2023-03-01T16:17:10;3.90;99.90
17146;DHT22;8688;54.444;18.444;2023-03-01T16:19:37;3.80;99.90
17146;DHT22;8688;54.444;18.444;2023-03-01T16:22:06;3.80;1.00
17146;DHT22;8688;54.444;18.444;2023-03-01T16:24:37;3.70;1.00
17146;DHT22;8688;54.444;18.444;2023-03-01T16:27:06;3.70;65.40
17146;DHT22;8688;54.444;18.444;2023-03-01T16:29:34;3.60;99.90
17146;DHT22;8688;54.444;18.444;2023-03-01T16:32:04;3.50;99.90
17146;DHT22;8688;54.444;18.444;2023-03-01T16:34:32;3.40;99.90
17146;DHT22;8688;54.444;18.444;2023-03-01T16:37:00;3.40;1.00